Terminal Aerodrome Forecast
Issued by NWS Billings, MT

Home | Current Version | Previous Version | Graphics & Text | Print | Product List | Glossary On
Versions: 1 2 3 4 5 6 7 8 9 10 11 12 13
000
FTUS45 KBYZ 141720
TAFMLS
TAF
KMLS 141720Z 1418/1518 31014KT P6SM FEW025 SCT040 BKN060
     FM150000 VRB06KT P6SM SCT080 SCT200
     FM151500 24008KT P6SM FEW100 BKN200=

USA.gov is the U.S. government's official web portal to all federal, state and local government web resources and services.